Time;durP1;ratioP1;P1;durP2;ratioP2;P2;SDS_P1;SDS_P2;PMS_P1;PMS_P2;Temp;Humidity;BMP_temperature;BMP_pressure;BME280_temperature;BME280_humidity;BME280_pressure;Samples;Min_cycle;Max_cycle;Signal;HPM_P1;HPM_P2
2022/03/26 00:01:53;;;;;;;36.58;24.90;;;9.60;45.90;;;8.29;44.44;96914.56;5001717;28;20647;-63
2022/03/26 00:04:18;;;;;;;40.88;25.60;;;9.50;45.70;;;8.25;44.42;96910.59;4989244;28;20038;-63
2022/03/26 00:06:44;;;;;;;40.58;24.63;;;9.50;45.80;;;8.21;44.74;96907.47;4990331;28;20678;-63
2022/03/26 00:09:10;;;;;;;43.03;25.58;;;9.50;45.90;;;8.19;45.39;96908.59;5003524;28;20043;-63
2022/03/26 00:11:36;;;;;;;39.70;25.33;;;9.40;46.50;;;8.16;44.97;96911.53;4991256;28;20525;-63
2022/03/26 00:14:01;;;;;;;42.25;25.80;;;9.50;46.40;;;8.12;45.09;96912.78;5004373;28;20497;-64
2022/03/26 00:16:27;;;;;;;42.00;25.80;;;9.40;46.50;;;8.09;45.43;96915.72;5008317;28;20057;-64
2022/03/26 00:18:53;;;;;;;45.78;25.38;;;9.40;46.70;;;8.05;45.29;96920.44;5006123;28;20037;-64
2022/03/26 00:21:18;;;;;;;42.53;25.92;;;9.30;46.90;;;8.01;45.41;96928.78;5009541;28;20034;-64
2022/03/26 00:23:44;;;;;;;42.95;26.42;;;9.20;46.90;;;7.95;45.69;96925.78;5007397;28;20113;-64
2022/03/26 00:26:11;;;;;;;42.95;25.50;;;9.20;47.10;;;7.89;45.38;96926.38;4983987;28;20035;-64
2022/03/26 00:28:37;;;;;;;43.47;25.73;;;9.10;47.30;;;7.82;46.06;96925.34;5010321;28;20030;-63
2022/03/26 00:31:04;;;;;;;43.15;26.23;;;9.10;47.80;;;7.76;46.23;96931.19;5006038;28;20028;-63
2022/03/26 00:33:30;;;;;;;40.40;26.00;;;8.90;48.20;;;7.71;46.14;96936.06;5005116;28;20022;-63
2022/03/26 00:35:56;;;;;;;40.95;25.30;;;8.90;48.20;;;7.65;46.85;96934.03;4989866;28;20453;-66
2022/03/26 00:38:22;;;;;;;43.58;25.42;;;8.80;48.40;;;7.58;46.29;96935.63;4974033;28;20139;-63
2022/03/26 00:40:48;;;;;;;41.33;26.48;;;8.70;48.30;;;7.51;46.45;96932.78;4973541;28;20120;-64
2022/03/26 00:43:14;;;;;;;43.42;26.08;;;8.70;48.40;;;7.50;46.43;96930.31;5004626;28;20398;-63
2022/03/26 00:45:40;;;;;;;38.55;23.98;;;8.70;48.30;;;7.48;46.49;96933.09;4970201;28;20076;-63
2022/03/26 00:48:06;;;;;;;40.35;24.85;;;8.80;48.10;;;7.48;47.00;96937.50;5005606;28;20121;-64
2022/03/26 00:50:32;;;;;;;39.53;23.80;;;8.70;47.90;;;7.45;46.03;96929.91;4989786;28;20029;-64
2022/03/26 00:52:58;;;;;;;42.33;25.27;;;8.70;47.80;;;7.42;46.51;96933.66;5023436;28;20409;-64
2022/03/26 00:55:24;;;;;;;42.15;25.60;;;8.70;47.80;;;7.38;46.72;96938.38;5004070;28;20058;-63
2022/03/26 00:57:50;;;;;;;41.22;25.33;;;8.70;47.80;;;7.32;46.89;96938.97;5007761;28;20057;-64
2022/03/26 01:00:16;;;;;;;40.95;24.38;;;8.60;48.10;;;7.29;46.24;96934.03;4989193;28;20034;-63
2022/03/26 01:02:42;;;;;;;39.08;25.13;;;8.50;48.40;;;7.25;47.04;96932.69;4992265;28;20038;-64
2022/03/26 01:05:08;;;;;;;43.03;25.67;;;8.60;48.50;;;7.21;47.05;96941.78;4981479;28;20359;-64
2022/03/26 01:07:33;;;;;;;39.53;26.00;;;8.40;49.20;;;7.14;47.67;96940.72;4999983;28;20041;-64
2022/03/26 01:09:59;;;;;;;41.08;25.20;;;8.30;49.30;;;7.12;46.87;96934.81;4984774;28;20038;-64
2022/03/26 01:12:25;;;;;;;40.17;24.80;;;8.30;49.20;;;7.08;46.98;96941.31;4989971;28;20026;-64
2022/03/26 01:14:51;;;;;;;41.97;24.58;;;8.30;49.10;;;7.05;47.68;96942.44;5004797;28;20030;-64
2022/03/26 01:17:18;;;;;;;40.28;25.63;;;8.30;49.30;;;7.00;47.72;96930.75;5008268;28;20033;-64
2022/03/26 01:19:44;;;;;;;45.13;25.40;;;8.20;49.50;;;6.96;48.03;96929.41;5002232;28;20045;-64
2022/03/26 01:22:10;;;;;;;44.72;25.65;;;8.20;49.50;;;6.95;47.90;96931.19;5021748;28;20068;-64
2022/03/26 01:24:36;;;;;;;39.10;24.27;;;8.20;49.60;;;6.93;47.88;96933.13;4985828;28;20045;-64
2022/03/26 01:27:02;;;;;;;43.53;25.58;;;8.20;49.40;;;6.95;48.26;96930.38;4964475;28;20120;-64
2022/03/26 01:29:28;;;;;;;42.28;24.55;;;8.20;49.40;;;6.94;47.28;96939.19;4990172;28;20026;-63
2022/03/26 01:31:54;;;;;;;43.00;25.88;;;8.20;49.10;;;6.91;48.05;96929.84;4985761;28;20088;-65
2022/03/26 01:34:22;;;;;;;44.00;25.80;;;8.10;49.60;;;6.89;47.75;96930.97;5018587;28;20037;-65
2022/03/26 01:36:48;;;;;;;40.42;24.70;;;8.10;49.40;;;6.88;48.50;96929.31;4985640;28;20038;-64
2022/03/26 01:39:15;;;;;;;46.03;26.23;;;8.20;49.30;;;6.86;47.78;96923.41;4983528;28;20038;-64
2022/03/26 01:41:41;;;;;;;43.85;26.60;;;8.10;49.10;;;6.85;48.50;96934.84;4973447;28;20047;-64
2022/03/26 01:44:12;;;;;;;42.17;26.30;;;8.20;49.40;;;6.86;49.59;96939.09;5000632;28;20133;-64
2022/03/26 01:46:55;;;;;;;43.67;26.45;;;8.20;49.60;;;6.83;50.35;96934.16;4986135;28;20410;-64
2022/03/26 01:49:21;;;;;;;43.05;26.45;;;8.10;49.70;;;6.77;48.82;96930.31;4990003;28;20121;-63
2022/03/26 01:51:47;;;;;;;45.53;26.75;;;8.10;49.90;;;6.70;48.96;96934.50;5004973;28;20485;-64
2022/03/26 01:54:14;;;;;;;44.22;26.60;;;7.90;50.10;;;6.65;49.10;96934.94;4990038;28;20060;-63
2022/03/26 01:56:40;;;;;;;49.38;27.80;;;7.90;50.30;;;6.62;48.38;96930.00;4985657;28;20497;-63
2022/03/26 01:59:07;;;;;;;46.92;27.30;;;7.90;50.40;;;6.58;48.53;96933.88;4993690;28;20150;-62
2022/03/26 02:01:33;;;;;;;48.38;26.85;;;7.80;50.40;;;6.53;49.25;96927.41;4989572;28;20568;-65
2022/03/26 02:04:03;;;;;;;48.47;27.67;;;7.80;50.50;;;6.50;50.35;96931.13;5006407;28;20048;-63
2022/03/26 02:06:34;;;;;;;44.13;27.80;;;7.80;50.50;;;6.47;50.47;96926.19;5005346;28;20486;-64
2022/03/26 02:09:14;;;;;;;48.33;26.83;;;7.80;50.70;;;6.47;50.22;96925.38;5004312;28;20034;-63
2022/03/26 02:11:42;;;;;;;51.75;27.48;;;7.80;50.30;;;6.46;48.75;96919.31;4997882;28;20034;-64
2022/03/26 02:14:10;;;;;;;44.63;26.25;;;7.80;50.40;;;6.46;48.80;96919.31;4973321;28;20035;-65
2022/03/26 02:16:38;;;;;;;46.42;27.23;;;7.80;49.90;;;6.48;48.65;96919.16;4992146;28;20026;-64
2022/03/26 02:19:08;;;;;;;45.40;26.50;;;7.90;49.80;;;6.48;49.68;96927.84;5005855;28;20057;-64
2022/03/26 02:21:35;;;;;;;49.20;26.03;;;7.80;49.80;;;6.49;48.38;96924.25;4987418;28;20113;-64
2022/03/26 02:24:02;;;;;;;48.28;27.08;;;7.80;49.70;;;6.50;49.01;96923.28;4984986;28;20076;-64
2022/03/26 02:26:28;;;;;;;44.85;26.35;;;7.90;49.90;;;6.51;49.24;96924.94;4984290;28;20036;-65
2022/03/26 02:28:55;;;;;;;43.05;26.75;;;7.90;49.80;;;6.51;48.91;96935.38;5005584;28;20045;-65
2022/03/26 02:31:21;;;;;;;45.65;26.65;;;7.90;50.00;;;6.49;48.89;96929.47;4992220;28;20225;-65
2022/03/26 02:33:48;;;;;;;46.72;26.60;;;7.90;50.10;;;6.46;48.57;96929.75;5005693;28;20044;-64
2022/03/26 02:36:13;;;;;;;45.33;26.50;;;7.80;49.90;;;6.45;48.68;96928.13;4971505;28;20114;-64
2022/03/26 02:38:40;;;;;;;47.63;26.42;;;7.90;49.80;;;6.41;49.37;96932.00;5005850;28;20041;-64
2022/03/26 02:41:06;;;;;;;43.08;26.33;;;7.80;50.20;;;6.40;49.42;96932.97;5004653;28;20042;-64
2022/03/26 02:43:32;;;;;;;48.45;26.67;;;7.70;50.10;;;6.37;49.39;96930.63;4991734;28;20058;-63
2022/03/26 02:45:58;;;;;;;45.78;27.02;;;7.70;50.00;;;6.35;49.38;96932.56;4990614;28;20041;-65
2022/03/26 02:48:23;;;;;;;44.53;26.08;;;7.70;50.10;;;6.34;48.67;96938.75;5001052;28;20040;-63
2022/03/26 02:50:50;;;;;;;48.03;26.52;;;7.70;50.30;;;6.31;48.69;96928.56;5008265;28;20069;-66
2022/03/26 02:53:15;;;;;;;46.08;26.88;;;7.70;50.10;;;6.30;48.71;96934.75;4990484;28;20510;-63
2022/03/26 02:55:41;;;;;;;46.85;27.02;;;7.60;50.00;;;6.24;49.00;96932.72;4973966;28;20124;-63
2022/03/26 02:58:08;;;;;;;49.28;27.52;;;7.50;50.40;;;6.21;49.17;96936.44;4991709;28;20062;-64
2022/03/26 03:00:34;;;;;;;45.90;26.50;;;7.60;50.30;;;6.18;49.96;96941.13;5008340;28;20079;-64
2022/03/26 03:03:00;;;;;;;49.10;27.10;;;7.60;50.20;;;6.15;49.16;96937.00;5010754;28;20026;-64
2022/03/26 03:05:26;;;;;;;47.25;27.00;;;7.50;50.30;;;6.11;49.39;96936.47;5007988;28;20084;-64
2022/03/26 03:07:52;;;;;;;48.22;27.48;;;7.40;50.60;;;6.09;50.09;96934.94;4970824;28;20072;-64
2022/03/26 03:10:18;;;;;;;47.45;27.20;;;7.50;50.30;;;6.08;49.74;96931.50;5007587;28;20045;-64
2022/03/26 03:12:48;;;;;;;46.22;26.42;;;7.40;50.30;;;6.04;49.90;96940.59;5008136;28;20025;-64
2022/03/26 03:15:16;;;;;;;45.03;26.23;;;7.40;50.70;;;6.01;49.03;96943.50;5002137;28;20053;-64
2022/03/26 03:17:42;;;;;;;45.72;26.98;;;7.40;50.50;;;5.99;49.81;96947.22;4984251;28;20111;-64
2022/03/26 03:20:09;;;;;;;46.95;28.35;;;7.40;50.20;;;5.93;49.17;96953.81;4988197;28;20046;-64
2022/03/26 03:22:36;;;;;;;45.85;26.85;;;7.30;50.40;;;5.87;49.91;96949.09;5009994;28;20041;-64
2022/03/26 03:25:03;;;;;;;47.10;27.00;;;7.20;50.80;;;5.83;49.48;96947.72;4969038;28;20026;-64
2022/03/26 03:27:30;;;;;;;43.85;27.17;;;7.10;51.30;;;5.76;50.61;96946.66;4993121;28;20030;-65
2022/03/26 03:29:55;;;;;;;47.35;28.25;;;7.00;51.80;;;5.70;50.77;96948.03;5005417;28;20044;-65
2022/03/26 03:32:21;;;;;;;46.35;26.75;;;6.90;52.00;;;5.66;49.81;96945.81;5006265;28;20038;-64
2022/03/26 03:34:47;;;;;;;46.42;26.45;;;6.90;52.10;;;5.61;50.72;96942.78;4971111;28;20053;-63
2022/03/26 03:37:13;;;;;;;45.65;27.10;;;6.80;52.20;;;5.57;50.20;96941.41;5004352;28;20261;-64
2022/03/26 03:39:38;;;;;;;45.42;26.38;;;6.80;52.20;;;5.51;50.27;96943.63;5003998;28;20359;-63
2022/03/26 03:42:05;;;;;;;50.85;27.63;;;6.70;52.20;;;5.47;50.51;96947.47;5005184;28;20469;-63
2022/03/26 03:44:31;;;;;;;47.85;27.20;;;6.70;52.20;;;5.42;50.78;96941.00;4983908;28;20434;-64
2022/03/26 03:46:57;;;;;;;45.47;27.98;;;6.60;52.40;;;5.37;50.60;96937.97;5007429;28;20041;-64
2022/03/26 03:49:26;;;;;;;46.78;26.98;;;6.60;52.40;;;5.33;50.76;96934.00;5008437;28;20053;-64
2022/03/26 03:51:52;;;;;;;56.83;26.48;;;6.50;52.90;;;5.26;50.69;96936.31;5007430;28;20034;-64
2022/03/26 03:54:18;;;;;;;48.58;26.67;;;6.40;52.70;;;5.26;51.43;96938.09;4999792;28;20042;-63
2022/03/26 03:56:44;;;;;;;47.75;27.63;;;6.60;52.70;;;5.23;51.10;96934.81;4991654;28;20033;-63
2022/03/26 03:59:10;;;;;;;48.35;26.98;;;6.60;52.50;;;5.20;51.27;96945.53;4997417;28;20133;-63
2022/03/26 04:01:36;;;;;;;50.03;27.40;;;6.50;52.60;;;5.17;51.24;96939.72;5020034;28;20056;-63
2022/03/26 04:04:02;;;;;;;47.40;26.27;;;6.40;52.90;;;5.13;50.70;96939.19;5023432;28;20408;-63
2022/03/26 04:06:27;;;;;;;46.10;26.50;;;6.40;53.20;;;5.10;51.36;96939.44;5003998;28;20503;-63
2022/03/26 04:08:53;;;;;;;45.90;25.67;;;6.40;53.20;;;5.08;51.64;96936.16;4991959;28;20494;-63
2022/03/26 04:11:19;;;;;;;49.13;27.00;;;6.40;53.20;;;5.07;51.64;96933.69;5007210;28;20342;-64
2022/03/26 04:13:46;;;;;;;47.88;26.20;;;6.50;53.00;;;5.07;51.21;96933.69;5008278;28;20080;-64
2022/03/26 04:16:12;;;;;;;45.83;26.50;;;6.50;53.00;;;5.09;51.38;96942.19;4988500;28;20038;-63
2022/03/26 04:18:38;;;;;;;48.75;26.40;;;6.60;53.00;;;5.09;50.93;96942.19;4995185;28;20465;-64
2022/03/26 04:21:04;;;;;;;45.95;25.60;;;6.60;53.00;;;5.09;51.79;96947.41;5008337;28;20037;-63
2022/03/26 04:23:30;;;;;;;46.28;25.08;;;6.50;53.10;;;5.07;51.61;96944.09;4989831;28;20050;-64
2022/03/26 04:25:56;;;;;;;47.50;25.65;;;6.50;53.00;;;5.04;52.21;96947.00;5005500;28;20459;-64
2022/03/26 04:28:22;;;;;;;45.20;26.08;;;6.40;53.20;;;5.00;51.97;96958.66;5006920;28;20070;-64
2022/03/26 04:30:47;;;;;;;45.35;26.50;;;6.50;52.90;;;4.99;51.49;96949.19;4987154;28;20038;-67
2022/03/26 04:33:13;;;;;;;43.45;25.67;;;6.50;52.90;;;4.98;51.41;96947.50;5001967;28;20104;-64
2022/03/26 04:35:39;;;;;;;45.58;26.52;;;6.40;53.20;;;4.97;52.18;96953.66;5001415;28;20076;-64
2022/03/26 04:38:05;;;;;;;44.55;25.73;;;6.50;53.40;;;4.94;52.29;96949.56;4993642;28;20048;-63
2022/03/26 04:40:30;;;;;;;45.08;25.20;;;6.50;53.40;;;4.95;52.21;96953.00;4989188;28;20041;-63
2022/03/26 04:42:56;;;;;;;42.90;25.17;;;6.50;53.40;;;4.94;51.76;96954.78;4982754;28;20518;-65
2022/03/26 04:45:23;;;;;;;50.58;27.15;;;6.50;53.50;;;4.93;52.66;96947.91;5002367;28;20483;-64
2022/03/26 04:47:49;;;;;;;49.08;26.75;;;6.40;53.30;;;4.90;52.35;96953.38;5014019;28;20034;-63
2022/03/26 04:50:15;;;;;;;45.42;26.08;;;6.40;53.50;;;4.89;52.79;96960.38;5006035;28;20034;-63
2022/03/26 04:52:41;;;;;;;39.85;25.30;;;6.50;53.70;;;4.87;52.56;96951.88;5006717;28;20104;-63
2022/03/26 04:55:11;;;;;;;46.33;25.13;;;6.40;53.40;;;4.87;52.70;96964.91;4973735;28;20581;-63
2022/03/26 04:57:43;;;;;;;42.05;25.13;;;6.40;53.50;;;4.87;54.21;96964.91;5006683;28;20121;-64
2022/03/26 05:00:11;;;;;;;46.60;24.60;;;6.40;53.70;;;4.84;53.25;96961.75;4990583;28;20034;-63
2022/03/26 05:02:39;;;;;;;44.03;25.02;;;6.40;53.40;;;4.82;52.78;96967.09;5007016;28;20068;-63
2022/03/26 05:05:06;;;;;;;48.17;26.58;;;6.30;54.00;;;4.78;53.30;96970.94;4990815;28;20029;-62
2022/03/26 05:07:47;;;;;;;49.25;25.33;;;6.20;54.30;;;4.77;52.85;96971.88;4987111;28;20026;-63
2022/03/26 05:10:23;;;;;;;;;;;6.30;54.50;;;4.72;55.17;96961.00;5003552;28;20030;-63
2022/03/26 05:12:50;;;;;;;43.50;25.63;;;6.20;54.30;;;4.70;52.63;96962.91;4986257;28;19972;-63
2022/03/26 05:15:17;;;;;;;46.25;25.92;;;6.20;54.40;;;4.65;53.00;96959.88;4987384;28;20031;-63
2022/03/26 05:17:43;;;;;;;47.85;26.27;;;6.10;54.40;;;4.62;52.74;96954.94;4993928;28;20030;-63
2022/03/26 05:20:09;;;;;;;45.92;25.70;;;6.10;54.30;;;4.60;52.90;96956.84;4989684;28;20203;-63
2022/03/26 05:22:36;;;;;;;46.60;26.05;;;6.10;54.20;;;4.59;52.79;96960.41;5005193;28;20038;-63
2022/03/26 05:25:02;;;;;;;47.25;26.05;;;6.10;54.10;;;4.57;53.33;96963.16;4990097;28;20029;-62
2022/03/26 05:27:28;;;;;;;47.72;26.60;;;6.10;54.00;;;4.57;53.13;96959.72;5006288;28;20064;-63
2022/03/26 05:29:54;;;;;;;42.63;24.38;;;6.10;54.30;;;4.59;53.36;96968.25;5004080;28;20106;-65
2022/03/26 05:32:19;;;;;;;47.28;26.58;;;6.10;55.00;;;4.59;53.69;96970.84;5003792;28;20479;-63
2022/03/26 05:34:46;;;;;;;47.22;25.45;;;6.10;55.30;;;4.58;53.84;96985.66;4990516;28;20066;-63
2022/03/26 05:37:12;;;;;;;55.45;26.33;;;6.20;55.40;;;4.58;54.29;96984.81;4989893;28;20031;-63
2022/03/26 05:39:38;;;;;;;48.45;25.88;;;6.10;55.20;;;4.58;53.47;96980.44;4958570;28;20026;-64
2022/03/26 05:42:04;;;;;;;47.75;26.08;;;6.20;55.00;;;4.59;54.13;96989.09;4997356;28;20198;-63
2022/03/26 05:44:30;;;;;;;42.72;25.10;;;6.20;54.90;;;4.59;54.05;96989.09;4978454;28;20446;-64
2022/03/26 05:46:56;;;;;;;46.72;26.17;;;6.10;54.90;;;4.60;54.15;96988.94;4994840;28;20040;-64
2022/03/26 05:49:22;;;;;;;116.25;67.60;;;6.20;54.90;;;4.63;54.42;96992.25;5011469;28;20061;-64
2022/03/26 05:51:48;;;;;;;117.75;72.82;;;6.30;55.90;;;4.67;54.73;97002.28;5010582;28;20034;-64
2022/03/26 05:54:14;;;;;;;66.30;37.03;;;6.40;55.90;;;4.71;54.86;97005.44;4994324;28;20050;-63
2022/03/26 05:56:39;;;;;;;56.03;33.15;;;6.40;55.50;;;4.74;55.15;97000.78;4994841;28;20045;-64
2022/03/26 05:59:12;;;;;;;50.38;29.92;;;6.50;55.40;;;4.79;55.79;97006.47;5009838;28;20026;-64
2022/03/26 06:01:38;;;;;;;69.22;40.05;;;6.60;55.00;;;4.81;54.48;97004.53;5012302;28;20176;-65
2022/03/26 06:04:04;;;;;;;109.63;66.30;;;6.60;54.70;;;4.85;54.24;97007.72;4993687;28;20027;-63
2022/03/26 06:06:30;;;;;;;75.53;40.30;;;6.70;54.20;;;4.91;55.05;97001.97;4994494;28;20060;-63
2022/03/26 06:08:56;;;;;;;73.28;42.28;;;6.80;54.10;;;4.99;54.58;97003.94;4992386;28;20497;-63
2022/03/26 06:11:23;;;;;;;74.38;40.22;;;7.00;53.70;;;5.06;54.87;97011.09;5010247;28;20092;-64
2022/03/26 06:13:49;;;;;;;62.05;36.63;;;7.10;53.30;;;5.15;55.04;97007.66;4994238;28;20124;-63
2022/03/26 06:16:15;;;;;;;58.33;33.67;;;7.30;53.00;;;5.26;54.29;97011.97;5010490;28;20386;-66
2022/03/26 06:18:41;;;;;;;49.65;26.92;;;7.50;52.50;;;5.34;54.20;97014.72;4993561;28;20497;-63
2022/03/26 06:21:07;;;;;;;46.55;26.45;;;7.60;52.20;;;5.42;54.68;97012.25;5010143;28;20413;-64
2022/03/26 06:23:33;;;;;;;41.20;25.38;;;7.60;52.10;;;5.52;54.45;97015.72;4994304;28;20034;-63
2022/03/26 06:25:58;;;;;;;89.57;53.35;;;7.80;52.10;;;5.66;54.60;97016.28;5011113;28;20092;-63
2022/03/26 06:28:24;;;;;;;67.47;40.42;;;8.00;52.50;;;5.80;55.51;97013.28;4992904;28;20034;-64
2022/03/26 06:30:51;;;;;;;44.35;27.38;;;8.10;52.70;;;5.93;55.10;97018.28;5010318;28;20030;-63
2022/03/26 06:33:17;;;;;;;47.72;25.42;;;8.40;52.00;;;6.07;55.50;97023.88;4977637;28;20096;-65
2022/03/26 06:35:49;;;;;;;44.67;25.50;;;8.50;52.10;;;6.23;56.01;97022.50;5009473;28;20048;-66
2022/03/26 06:38:15;;;;;;;48.00;26.33;;;8.70;51.40;;;6.37;54.66;97024.69;5007210;28;20064;-65
2022/03/26 06:40:41;;;;;;;45.33;26.10;;;9.00;51.20;;;6.53;55.38;97024.94;5011423;28;20069;-65
2022/03/26 06:43:07;;;;;;;41.75;26.33;;;9.20;51.00;;;6.68;55.20;97028.75;5008686;28;20037;-63
2022/03/26 06:45:34;;;;;;;45.80;26.17;;;9.40;50.30;;;6.86;54.99;97025.41;4994106;28;20022;-65
2022/03/26 06:48:00;;;;;;;39.60;25.08;;;9.60;49.80;;;7.04;54.65;97034.16;4992742;28;20026;-64
2022/03/26 06:50:26;;;;;;;42.30;27.35;;;9.80;49.00;;;7.20;54.40;97041.38;5009944;28;20187;-64
2022/03/26 06:52:52;;;;;;;42.97;26.83;;;10.00;47.70;;;7.38;53.83;97037.84;5010022;28;20409;-64
2022/03/26 06:55:18;;;;;;;54.70;37.03;;;10.30;46.70;;;7.59;53.61;97034.13;5009569;28;20128;-63
2022/03/26 06:57:44;;;;;;;68.03;44.65;;;10.60;47.20;;;7.79;53.22;97030.44;5008524;28;20525;-65
2022/03/26 07:00:15;;;;;;;44.70;29.10;;;10.90;46.10;;;8.01;52.35;97033.56;5007012;28;20035;-64
2022/03/26 07:02:41;;;;;;;46.58;26.80;;;11.20;44.50;;;8.19;52.33;97026.53;5009071;28;20201;-63
2022/03/26 07:05:08;;;;;;;41.55;26.92;;;11.50;45.00;;;8.40;51.98;97029.69;4993053;28;20041;-63
2022/03/26 07:07:34;;;;;;;39.38;27.77;;;11.80;44.10;;;8.62;51.73;97030.19;4992453;28;20034;-63
2022/03/26 07:09:59;;;;;;;38.85;27.83;;;12.10;43.20;;;8.85;51.04;97031.31;5009134;28;20347;-63
2022/03/26 07:12:27;;;;;;;42.83;27.60;;;12.50;42.80;;;9.08;50.67;97024.53;5009356;28;20469;-64
2022/03/26 07:14:53;;;;;;;39.67;26.70;;;12.80;41.90;;;9.36;50.46;97021.69;4993477;28;20041;-64
2022/03/26 07:17:20;;;;;;;41.05;27.23;;;13.30;40.00;;;9.61;49.67;97030.47;5005593;28;20064;-64
2022/03/26 07:19:46;;;;;;;39.97;27.20;;;13.60;40.00;;;9.88;49.68;97032.84;5004606;28;20493;-64
2022/03/26 07:22:12;;;;;;;42.70;27.45;;;14.10;39.00;;;10.18;48.78;97034.00;4991345;28;20057;-65
2022/03/26 07:24:38;;;;;;;45.97;28.92;;;14.60;38.00;;;10.46;47.16;97039.00;5008793;28;20034;-64
2022/03/26 07:27:04;;;;;;;42.25;28.40;;;14.80;35.70;;;10.77;45.76;97034.69;5001223;28;20042;-64
2022/03/26 07:29:29;;;;;;;40.38;29.20;;;15.20;33.90;;;11.05;45.03;97032.47;5006267;28;20032;-65
2022/03/26 07:31:55;;;;;;;39.00;28.58;;;15.50;33.30;;;11.33;43.49;97040.81;5008682;28;20037;-65
2022/03/26 07:34:22;;;;;;;46.38;32.63;;;15.80;32.40;;;11.62;42.57;97034.91;5008621;28;20097;-70
2022/03/26 07:36:48;;;;;;;43.47;30.15;;;16.10;32.10;;;11.88;42.18;97037.28;4997117;28;20121;-65
2022/03/26 07:39:14;;;;;;;37.22;27.40;;;16.50;31.70;;;12.13;42.16;97027.38;5007213;28;20502;-68
2022/03/26 07:41:40;;;;;;;49.97;30.63;;;16.70;31.10;;;12.37;41.65;97029.00;4986705;28;20044;-66
2022/03/26 07:44:07;;;;;;;40.78;27.33;;;17.10;31.00;;;12.61;40.99;97026.16;5007789;28;20038;-66
2022/03/26 07:46:33;;;;;;;42.80;28.73;;;17.40;30.00;;;12.83;40.23;97035.03;5007781;28;20030;-66
2022/03/26 07:48:58;;;;;;;39.60;27.02;;;17.60;29.30;;;13.11;40.16;97029.97;5010008;28;20030;-67
2022/03/26 07:51:24;;;;;;;43.55;26.75;;;18.10;29.30;;;13.38;39.33;97036.47;5006336;28;20136;-65
2022/03/26 07:53:50;;;;;;;39.25;26.75;;;18.30;28.60;;;13.60;38.42;97027.63;5004458;28;20050;-64
2022/03/26 07:56:16;;;;;;;38.15;26.20;;;18.40;27.90;;;13.80;39.05;97033.09;4989400;28;20481;-64
2022/03/26 07:58:42;;;;;;;42.03;26.40;;;18.80;27.90;;;14.05;38.45;97031.78;5009905;28;20099;-69
2022/03/26 08:01:08;;;;;;;40.35;27.60;;;19.20;27.70;;;14.33;38.99;97031.03;5007406;28;20042;-62
2022/03/26 08:03:33;;;;;;;39.58;26.30;;;19.50;27.20;;;14.56;38.16;97039.63;4989918;28;20446;-64
2022/03/26 08:05:59;;;;;;;39.60;27.20;;;19.80;26.90;;;14.83;37.33;97029.22;5003620;28;20030;-65
2022/03/26 08:08:25;;;;;;;43.90;27.70;;;20.20;26.20;;;15.09;37.38;97040.00;5009383;28;20112;-65
2022/03/26 08:10:51;;;;;;;35.00;26.23;;;20.50;25.30;;;15.41;35.93;97045.72;4989713;28;20131;-64
2022/03/26 08:13:17;;;;;;;36.78;26.13;;;20.70;25.20;;;15.66;35.68;97036.28;4987649;28;20121;-64
2022/03/26 08:15:43;;;;;;;39.10;27.05;;;21.00;25.10;;;15.91;35.16;97033.91;4999848;28;20038;-65
2022/03/26 08:18:08;;;;;;;38.13;26.50;;;21.10;25.00;;;16.15;34.60;97035.22;5006804;28;20159;-63
2022/03/26 08:20:34;;;;;;;39.30;28.30;;;21.10;24.40;;;16.45;34.48;97040.97;5008269;28;20407;-64
2022/03/26 08:23:00;;;;;;;37.80;27.02;;;21.60;24.40;;;16.72;33.48;97047.13;4998045;28;20077;-64
2022/03/26 08:28:14;;;;;;;41.63;27.15;;;22.10;23.60;;;17.27;32.68;97045.06;5008984;28;20112;-64
2022/03/26 08:30:40;;;;;;;41.63;26.75;;;22.30;23.10;;;17.53;32.58;97050.31;4987260;28;20033;-63
2022/03/26 08:33:05;;;;;;;40.25;28.25;;;22.60;23.40;;;17.74;31.78;97051.91;4987173;28;20030;-63
2022/03/26 08:35:33;;;;;;;36.78;26.45;;;22.60;22.80;;;17.89;31.86;97055.13;5001482;28;20076;-68
2022/03/26 08:37:58;;;;;;;39.45;26.77;;;22.80;23.40;;;18.11;31.84;97052.97;4983607;28;20091;-64
2022/03/26 08:40:24;;;;;;;35.45;26.38;;;23.00;22.50;;;18.35;31.42;97057.56;5005666;28;20172;-65
2022/03/26 08:42:50;;;;;;;37.35;26.92;;;23.20;21.90;;;18.54;31.17;97044.28;4984963;28;20493;-64
2022/03/26 08:45:16;;;;;;;41.78;27.23;;;23.30;21.90;;;18.71;30.19;97049.94;5005597;28;20045;-64
2022/03/26 08:47:41;;;;;;;38.85;26.80;;;23.50;21.80;;;18.84;29.36;97053.34;5001954;28;20107;-64
2022/03/26 08:50:08;;;;;;;39.25;28.55;;;23.60;21.70;;;18.97;30.14;97053.22;5005050;28;20081;-66
2022/03/26 08:52:34;;;;;;;40.20;27.40;;;23.50;21.70;;;19.17;28.99;97049.56;5002515;28;20034;-65
2022/03/26 08:55:00;;;;;;;43.33;27.52;;;23.90;21.50;;;19.38;29.73;97054.47;4987944;28;20494;-66
2022/03/26 08:57:26;;;;;;;42.03;29.95;;;24.10;21.40;;;19.54;29.10;97055.78;5007475;28;20383;-65
2022/03/26 08:59:52;;;;;;;36.53;26.38;;;24.30;21.00;;;19.76;29.70;97053.47;5006293;28;20099;-65
2022/03/26 09:02:18;;;;;;;39.05;26.35;;;24.60;21.10;;;19.97;29.13;97053.03;5006262;28;20541;-63
2022/03/26 09:04:45;;;;;;;36.58;26.35;;;24.60;20.30;;;20.17;28.33;97048.25;5005158;28;20177;-65
2022/03/26 09:07:11;;;;;;;37.42;27.08;;;25.00;21.10;;;20.47;28.97;97053.59;5018592;28;20034;-63
2022/03/26 09:09:36;;;;;;;36.58;26.08;;;25.20;20.30;;;20.62;27.51;97049.69;5011375;28;20394;-65
2022/03/26 09:12:02;;;;;;;38.22;28.35;;;25.20;20.60;;;20.85;27.66;97044.38;5007554;28;20069;-64
2022/03/26 09:14:28;;;;;;;36.75;27.10;;;25.50;20.20;;;21.04;27.62;97053.09;5007734;28;20034;-64
2022/03/26 09:16:54;;;;;;;37.25;27.13;;;25.40;20.10;;;21.29;27.46;97056.41;5007168;28;20163;-65
2022/03/26 09:19:20;;;;;;;40.33;26.92;;;25.80;20.30;;;21.49;27.34;97056.03;4994100;28;20041;-68
2022/03/26 09:21:46;;;;;;;37.58;26.60;;;26.00;19.80;;;21.65;26.38;97049.16;4989238;28;20030;-63
2022/03/26 09:24:14;;;;;;;36.10;26.85;;;26.00;19.70;;;21.85;26.46;97054.94;5008389;28;20116;-63
2022/03/26 09:26:39;;;;;;;35.85;26.10;;;26.10;19.50;;;22.08;26.67;97048.72;5006147;28;20378;-64
2022/03/26 09:29:05;;;;;;;40.05;27.65;;;26.50;20.30;;;22.22;26.09;97044.72;5007930;28;20038;-63
2022/03/26 09:31:31;;;;;;;35.47;26.48;;;26.40;19.40;;;22.40;26.29;97043.66;4990261;28;20030;-68
2022/03/26 09:33:57;;;;;;;39.53;28.67;;;26.60;19.60;;;22.50;25.79;97041.19;4994219;28;20212;-65
2022/03/26 09:36:23;;;;;;;39.65;27.95;;;26.60;19.10;;;22.67;25.62;97046.56;4994440;28;20064;-64
2022/03/26 09:38:48;;;;;;;37.08;27.58;;;26.70;19.40;;;22.87;24.91;97036.22;5004335;28;20026;-64
2022/03/26 09:41:14;;;;;;;37.05;26.58;;;26.90;19.20;;;23.04;25.71;97041.56;4989957;28;20038;-67
2022/03/26 09:43:40;;;;;;;40.67;26.48;;;27.20;19.20;;;23.18;24.86;97044.72;5000106;28;20387;-64
2022/03/26 09:46:06;;;;;;;40.42;27.17;;;27.50;18.80;;;23.28;24.94;97039.50;4985943;28;20048;-64
2022/03/26 09:48:32;;;;;;;34.17;25.92;;;27.60;18.90;;;23.42;24.60;97042.66;5003624;28;20089;-64
2022/03/26 09:50:58;;;;;;;36.10;29.00;;;27.90;18.50;;;23.63;24.50;97041.91;4989932;28;20038;-63
2022/03/26 09:53:24;;;;;;;43.42;29.50;;;28.40;18.50;;;23.90;24.70;97036.59;5005727;28;20180;-64
2022/03/26 09:55:51;;;;;;;37.58;26.77;;;28.90;18.00;;;24.08;24.50;97030.09;4987055;28;20039;-64
2022/03/26 09:58:16;;;;;;;36.55;26.67;;;29.20;17.70;;;24.18;23.67;97027.50;5002713;28;20050;-64
2022/03/26 10:00:42;;;;;;;38.30;27.00;;;29.40;17.40;;;24.44;24.28;97028.59;4991432;28;20077;-67
2022/03/26 10:03:08;;;;;;;36.55;26.35;;;30.00;17.20;;;24.74;24.61;97036.16;4984286;28;20030;-66
2022/03/26 10:05:34;;;;;;;41.95;25.35;;;30.50;17.20;;;25.16;24.17;97035.44;5005232;28;20026;-65
2022/03/26 10:08:22;;;;;;;34.85;24.83;;;31.10;16.80;;;25.63;22.67;97030.88;4969071;28;20029;-65
2022/03/26 10:10:49;;;;;;;36.90;25.33;;;31.50;16.20;;;26.10;24.07;97029.19;4989422;28;20026;-65
2022/03/26 10:13:46;;;;;;;36.30;24.38;;;32.40;15.70;;;26.78;21.53;97025.28;5008519;28;20038;-65
2022/03/26 10:16:12;;;;;;;33.30;24.15;;;32.90;14.80;;;27.35;23.57;97018.75;4990961;28;20038;-66